Main page
METAR-TAF:

METAR-TAF

Airports :

RAF Waddington

Waddington, England

latitude: 53-10N, longitude: 000-31W, elevation: 68 m

Current weather observation

The report was made 55 minutes ago, at 03:50 UTC
Wind 6 kt from the West
Temperature 15°C
Humidity 82%
Pressure 1014 hPa
Visibility 10 km or more
no clouds below 1500 m and no cumulonimbus

METAR: EGXW 220350Z 27006KT CAVOK 15/12 Q1014 BLU

Time: 05:45 (04:45 UTC)

Forecast

The report was made 3 hours and 17 minutes ago, at 01:28 UTC
Forecast valid from 22 at 03 UTC to 22 at 21 UTC
Wind 7 kt from the West
Visibility 10 km or more
no clouds below 1500 m and no cumulonimbus

TAF: EGXW 220128Z 2203/2221 28007KT CAVOK

Weather observations and forecasts of more than 4000 airports (METAR and TAF reports).

The available stations are represented by yellow and red dots on the map.

Hover mouse over dot to see the name of the station.

Then click to see weather observations and forecasts.

To change the map : click on the green buttons with a black cross to zoom in, on the green button with a dash to zoom out, or on the green arrows for adjacent maps.


METAR-TAF: